Abilene, Kansas
Current Conditions -  °F | °C
As of 12:53 PM on Thursday 27 Nov 2014 (Local Time) from KSLN Reporting Station
Clear Clear  
Wind Chill: 36°   Ceiling: Unl
Heat Index: 43°   Visibility: 10mi
Dew Point: 17°   Wind: 15mph
Humidity: 35%   Direction: 170°S
Pressure: 30.38"   Gusts: NA
Location:  38.92°N, 97.21°W
Report Text: KSLN 271853Z 17013KT 10SM CLR 06/M08 A3038 RMK AO2 SLP299 T00611083
Loading
Personal Weather Stations






























Interactive Weather Map New forecast layout! Learn more

10-Day Weather Forecast

Advertisements
Track Severe Weather on mobile